Thunder radar more information blitzortung!


Radar de pluja more information rain snow radar


Visita la nostra xarxa de llocs de meteo:

Template documentation
and downloads

And another site



No particular awareness of the weather is required.    There are no Weather-warnings

Pagina Historial Weather Underground text

Diari Resum Agost 20, 2017 Unitats:  Mètric    Imperial   Tant
« Previous Dia
SegĂźent Dia »
Diari Setmana Mensual Anual Personalitzada
  Maxima: Minima: Media:
Temperatura: -17.8 °C -6.3 °C -4.1 °C
Punt de rosada: -17.8 °C -9.2 °C -7.9 °C
Humitat: Humidity % 43 % 66 %
Wind Speed: 0 km/h 0 km/h 8.7 km/h
RĂ fegues de vent: 0 km/h - -
Vent:- - SSW
Pression baro: 0 hPa 34428.8 hPa -
Precipitacions: 0 mm    
Historical Graphs
 
 
Dades de taula per Agost 20, 2017
Temps Temperatura Punt de rosada Pression baro Vent Wind Speed RĂ fegues de vent Humitat Rainfall Rate (Hourly)
-17.8 °C -17.8 °C 0 hPa Calm     Humidity % 0 mm
00:03 -5.1 °C -7.9 °C 34496.6 hPa SW 6 km/h 6 km/h 73 % 0 mm
00:08 -5.1 °C -7.9 °C 34496.6 hPa SW 6 km/h 6 km/h 73 % 0 mm
00:13 -5.1 °C -7.9 °C 34462.7 hPa WSW 6.8 km/h 6.8 km/h 73 % 0 mm
00:18 -5.1 °C -7.9 °C 34462.7 hPa WSW 3.7 km/h 3.7 km/h 73 % 0 mm
00:23 -5.1 °C -7.9 °C 34462.7 hPa SW 6.3 km/h   73 % 0 mm
00:28 -5.1 °C -7.9 °C 34496.6 hPa West 6 km/h 6 km/h 73 % 0 mm
00:33 -5.1 °C -7.9 °C 34496.6 hPa SW 6 km/h 6 km/h 73 % 0 mm
00:38 -5.1 °C -7.8 °C 34496.6 hPa SW 3.1 km/h 3.1 km/h 74 % 0 mm
00:43 -5.1 °C -7.8 °C 34462.7 hPa SW 6 km/h 6 km/h 74 % 0 mm
00:49 -5.1 °C -7.9 °C 34462.7 hPa WSW 6 km/h 6 km/h 73 % 0 mm
00:53 -5.1 °C -7.8 °C 34462.7 hPa SW 3.1 km/h 3.1 km/h 74 % 0 mm
00:59 -5 °C -7.8 °C 34496.6 hPa West 6 km/h 6 km/h 73 % 0 mm
01:04 -5.1 °C -7.8 °C 34496.6 hPa SW 6 km/h 6 km/h 74 % 0 mm
01:09 -5.1 °C -7.8 °C 34496.6 hPa WSW 4.2 km/h 4.2 km/h 74 % 0 mm
01:14 -5 °C -7.8 °C 34462.7 hPa WSW 3.7 km/h 3.7 km/h 73 % 0 mm
01:19 -5 °C -7.8 °C 34462.7 hPa WSW 6 km/h 6 km/h 73 % 0 mm
01:24 -5 °C -7.7 °C 34462.7 hPa Calm     74 % 0 mm
01:29 -5 °C -7.7 °C 34462.7 hPa SW 3.1 km/h   74 % 0 mm
01:34 -5 °C -7.8 °C 34462.7 hPa WSW 6 km/h 6 km/h 73 % 0 mm
01:39 -5 °C -7.7 °C 34462.7 hPa Calm     74 % 0 mm
01:44 -5 °C -7.7 °C 34462.7 hPa WSW 3.1 km/h   74 % 0 mm
01:49 -5 °C -7.7 °C 34462.7 hPa West 3.7 km/h   74 % 0 mm
01:54 -5 °C -7.7 °C 34462.7 hPa SW 6 km/h 6 km/h 74 % 0 mm
01:59 -5 °C -7.7 °C 34462.7 hPa WSW 2.3 km/h   74 % 0 mm
02:04 -5 °C -7.7 °C 34462.7 hPa WSW 3.7 km/h   74 % 0 mm
02:09 -5 °C -7.7 °C 34462.7 hPa WSW 6 km/h 6 km/h 74 % 0 mm
02:14 -5 °C -7.7 °C 34462.7 hPa SW 6 km/h 6 km/h 74 % 0 mm
02:19 -5 °C -7.7 °C 34462.7 hPa WSW 6 km/h 6 km/h 74 % 0 mm
02:24 -5 °C -7.7 °C 34462.7 hPa SW 3.1 km/h   74 % 0 mm
02:29 -5 °C -7.7 °C 34462.7 hPa WSW 6 km/h   74 % 0 mm
02:34 -5 °C -7.7 °C 34462.7 hPa WSW 3.1 km/h   74 % 0 mm
02:39 -5 °C -7.7 °C 34462.7 hPa WSW 6 km/h 6 km/h 74 % 0 mm
02:44 -5 °C -7.7 °C 34428.8 hPa Calm     74 % 0 mm
02:49 -5 °C -7.7 °C 34428.8 hPa West 3.7 km/h   74 % 0 mm
02:54 -5 °C -7.7 °C 34428.8 hPa North 3.1 km/h   74 % 0 mm
02:59 -5 °C -7.7 °C 34462.7 hPa West 3.1 km/h   74 % 0 mm
03:04 -5 °C -7.7 °C 34462.7 hPa Calm     74 % 0 mm
03:09 -5 °C -7.7 °C 34462.7 hPa Calm     74 % 0 mm
03:14 -5.1 °C -7.7 °C 34462.7 hPa WSW 4.2 km/h   75 % 0 mm
03:19 -5.1 °C -7.7 °C 34462.7 hPa WSW 3.1 km/h 3.1 km/h 75 % 0 mm
03:24 -5.1 °C -7.7 °C 34462.7 hPa SW 3.1 km/h   75 % 0 mm
03:29 -5.1 °C -7.7 °C 34462.7 hPa WSW 6 km/h 6 km/h 75 % 0 mm
03:34 -5.1 °C -7.7 °C 34462.7 hPa SW 6 km/h 6 km/h 75 % 0 mm
03:39 -5.1 °C -7.7 °C 34462.7 hPa WSW 6 km/h 6 km/h 75 % 0 mm
03:44 -5.1 °C -7.7 °C 34462.7 hPa SSW 3.1 km/h   75 % 0 mm
03:49 -5.1 °C -7.7 °C 34462.7 hPa SW 6.3 km/h 6.3 km/h 75 % 0 mm
03:54 -5.1 °C -7.7 °C 34462.7 hPa Calm     75 % 0 mm
03:59 -5.1 °C -7.7 °C 34462.7 hPa SW 7.6 km/h 7.6 km/h 75 % 0 mm
04:04 -5.1 °C -7.6 °C 34462.7 hPa SW 3.1 km/h   76 % 0 mm
04:09 -5.1 °C -7.6 °C 34462.7 hPa SW 6 km/h 6 km/h 76 % 0 mm
04:14 -5.1 °C -7.7 °C 34462.7 hPa SW 9 km/h 9 km/h 75 % 0 mm
04:19 -5.2 °C -7.7 °C 34462.7 hPa SW 6 km/h 6 km/h 76 % 0 mm
04:24 -5.2 °C -7.7 °C 34462.7 hPa SW 6 km/h 6 km/h 76 % 0 mm
04:29 -5.2 °C -7.7 °C 34462.7 hPa WSW 4.2 km/h 4.2 km/h 76 % 0 mm
04:34 -5.2 °C -7.7 °C 34462.7 hPa West 6 km/h 6 km/h 76 % 0 mm
04:39 -5.2 °C -7.7 °C 34462.7 hPa SW 3.1 km/h   76 % 0 mm
04:44 -5.2 °C -7.7 °C 34462.7 hPa SW 3.1 km/h 3.1 km/h 76 % 0 mm
04:49 -5.2 °C -7.7 °C 34462.7 hPa WSW 6 km/h 6 km/h 76 % 0 mm
04:54 -5.3 °C -7.7 °C 34462.7 hPa SW 6 km/h   76 % 0 mm
04:59 -5.3 °C -7.7 °C 34428.8 hPa SW 5.1 km/h 5.1 km/h 77 % 0 mm
05:04 -5.3 °C -7.7 °C 34428.8 hPa SW 6 km/h 6 km/h 77 % 0 mm
05:09 -5.4 °C -7.7 °C 34428.8 hPa SW 3.1 km/h 3.1 km/h 77 % 0 mm
05:15 -5.4 °C -7.8 °C 34462.7 hPa WSW 6 km/h 6 km/h 77 % 0 mm
05:19 -5.4 °C -7.8 °C 34462.7 hPa WSW 3.7 km/h 3.7 km/h 77 % 0 mm
05:20 -5.4 °C -7.8 °C 34462.7 hPa WSW 3.7 km/h 3.7 km/h 77 % 0 mm
05:23 -5.4 °C -7.8 °C 34462.7 hPa WSW 6 km/h 6 km/h 77 % 0 mm
05:25 -5.5 °C -7.8 °C 34462.7 hPa West 6 km/h   77 % 0 mm
05:30 -5.5 °C -7.7 °C 34428.8 hPa WSW 6.3 km/h 6.3 km/h 78 % 0 mm
05:35 -5.5 °C -7.7 °C 34428.8 hPa Calm     78 % 0 mm
05:45 -5.6 °C -7.8 °C 34462.7 hPa WSW 3.1 km/h 3.1 km/h 78 % 0 mm
05:50 -5.6 °C -7.8 °C 34462.7 hPa WSW 4.2 km/h 4.2 km/h 78 % 0 mm
05:55 -5.6 °C -7.8 °C 34462.7 hPa WSW 6 km/h 6 km/h 78 % 0 mm
06:00 -5.6 °C -7.8 °C 34462.7 hPa West 6 km/h 6 km/h 78 % 0 mm
06:05 -5.6 °C -7.7 °C 34462.7 hPa WSW 6 km/h 6 km/h 79 % 0 mm
06:10 -5.6 °C -7.7 °C 34462.7 hPa Calm     79 % 0 mm
06:15 -5.7 °C -7.8 °C 34462.7 hPa West 3.1 km/h 3.1 km/h 79 % 0 mm
06:20 -5.7 °C -7.8 °C 34462.7 hPa Calm     79 % 0 mm
06:25 -5.7 °C -7.7 °C 34462.7 hPa West 3.1 km/h 3.1 km/h 80 % 0 mm
06:27 -5.7 °C -7.7 °C 34462.7 hPa Calm     80 % 0 mm
06:32 -5.7 °C -7.7 °C 34462.7 hPa Calm     80 % 0 mm
06:37 -5.7 °C -7.7 °C 34462.7 hPa Calm     80 % 0 mm
06:42 -5.8 °C -7.8 °C 34462.7 hPa West 3.1 km/h   80 % 0 mm
06:47 -5.8 °C -7.8 °C 34462.7 hPa West 3.1 km/h 3.1 km/h 80 % 0 mm
06:52 -5.8 °C -7.8 °C 34462.7 hPa WSW 3.7 km/h   80 % 0 mm
06:57 -5.8 °C -7.8 °C 34462.7 hPa Calm     80 % 0 mm
07:02 -5.8 °C -7.8 °C 34462.7 hPa Calm     80 % 0 mm
07:07 -5.9 °C -7.8 °C 34462.7 hPa Calm     81 % 0 mm
07:12 -5.9 °C -7.8 °C 34462.7 hPa Calm     81 % 0 mm
07:17 -5.9 °C -7.8 °C 34462.7 hPa Calm     81 % 0 mm
07:22 -5.9 °C -7.8 °C 34462.7 hPa Calm     81 % 0 mm
07:27 -5.9 °C -7.8 °C 34462.7 hPa Calm     81 % 0 mm
07:32 -6 °C -7.8 °C 34462.7 hPa Calm     82 % 0 mm
07:37 -6 °C -7.8 °C 34462.7 hPa Calm     82 % 0 mm
07:42 -6 °C -7.8 °C 34462.7 hPa Calm     82 % 0 mm
07:47 -6 °C -7.8 °C 34462.7 hPa Calm     82 % 0 mm
07:52 -6 °C -7.8 °C 34462.7 hPa Calm     82 % 0 mm
07:57 -6 °C -7.8 °C 34496.6 hPa SW 3.1 km/h 3.1 km/h 82 % 0 mm
08:02 -6 °C -7.8 °C 34496.6 hPa Calm     82 % 0 mm
08:07 -5.9 °C -7.7 °C 34496.6 hPa Calm     82 % 0 mm
08:12 -5.9 °C -7.6 °C 34462.7 hPa Calm     83 % 0 mm
08:17 -5.8 °C -7.6 °C 34462.7 hPa NE 6.3 km/h 6.3 km/h 82 % 0 mm
08:22 -5.8 °C -7.6 °C 34462.7 hPa East 6 km/h 6 km/h 82 % 0 mm
08:27 -5.8 °C -7.6 °C 34496.6 hPa East 3.1 km/h 3.1 km/h 82 % 0 mm
08:30 -5.7 °C -7.5 °C 34496.6 hPa Calm     82 % 0 mm
08:35 -5.7 °C -7.5 °C 34496.6 hPa Calm     82 % 0 mm
08:40 -5.7 °C -7.4 °C 34496.6 hPa SSW 3.1 km/h   82 % 0 mm
08:45 -5.6 °C -7.4 °C 34496.6 hPa Calm     82 % 0 mm
08:50 -5.6 °C -7.3 °C 34496.6 hPa SW 5.1 km/h 5.1 km/h 82 % 0 mm
08:55 -5.4 °C -7.2 °C 34496.6 hPa Calm     82 % 0 mm
09:00 -5.3 °C -7.3 °C 34533.8 hPa SSW 6 km/h 6 km/h 80 % 0 mm
09:01 -5.3 °C -7.3 °C 34533.8 hPa SW 6 km/h 6 km/h 80 % 0 mm
09:06 -5.3 °C -7.4 °C 34533.8 hPa WSW 9 km/h 9 km/h 79 % 0 mm
09:11 -5.1 °C -7.3 °C 34533.8 hPa WSW 6.3 km/h 6.8 km/h 79 % 0 mm
09:16 -4.8 °C -7.2 °C 34496.6 hPa SW 7.6 km/h 7.6 km/h 77 % 0 mm
09:21 -4.7 °C -7.2 °C 34496.6 hPa West 6 km/h 6 km/h 76 % 0 mm
09:26 -4.6 °C -7.2 °C 34496.6 hPa SSW 6 km/h 6 km/h 75 % 0 mm
09:31 -4.6 °C -7.2 °C 34533.8 hPa SW 6 km/h   75 % 0 mm
09:36 -4.5 °C -7.2 °C 34533.8 hPa WSW 6 km/h 6 km/h 74 % 0 mm
09:41 -4.4 °C -7.3 °C 34533.8 hPa WSW 9 km/h 9 km/h 73 % 0 mm
09:46 -4.1 °C -7.1 °C 34496.6 hPa SW 11.9 km/h 11.9 km/h 72 % 0 mm
09:51 -3.9 °C -7.3 °C 34496.6 hPa WSW 9 km/h 9 km/h 69 % 0 mm
09:56 -3.8 °C -7.3 °C 34496.6 hPa SW 9 km/h 9 km/h 68 % 0 mm
10:01 -3.6 °C -7.2 °C 34533.8 hPa ENE 6 km/h 6 km/h 67 % 0 mm
10:06 -3.3 °C -7.1 °C 34533.8 hPa WSW 6 km/h   66 % 0 mm
10:11 -3.4 °C -7.3 °C 34533.8 hPa SE 9.8 km/h 9.8 km/h 66 % 0 mm
10:16 -3.4 °C -7.4 °C 34496.6 hPa WSW 9 km/h 9 km/h 65 % 0 mm
10:21 -3.3 °C -7.3 °C 34496.6 hPa SW 11.9 km/h 11.9 km/h 65 % 0 mm
10:26 -3.3 °C -7.3 °C 34496.6 hPa SSE 9 km/h 9 km/h 65 % 0 mm
10:31 -3.1 °C -7.2 °C 34533.8 hPa SE 9 km/h 9 km/h 64 % 0 mm
10:36 -3.3 °C -7.7 °C 34533.8 hPa East 11.9 km/h 11.9 km/h 62 % 0 mm
10:41 -3.3 °C -7.5 °C 34533.8 hPa NNE 9 km/h 9 km/h 63 % 0 mm
10:46 -3.1 °C -7.4 °C 34533.8 hPa NNW 8 km/h 8 km/h 62 % 0 mm
10:51 -2.8 °C -7.2 °C 34533.8 hPa NNW 6 km/h 6 km/h 62 % 0 mm
10:56 -2.7 °C -7.2 °C 34533.8 hPa SSW 9.3 km/h 9.3 km/h 61 % 0 mm
11:01 -3 °C -7.6 °C 34533.8 hPa SW 9.8 km/h 9.8 km/h 61 % 0 mm
11:06 -3 °C -7.6 °C 34533.8 hPa WNW 9 km/h 9 km/h 61 % 0 mm
11:11 -2.8 °C -7.4 °C 34533.8 hPa ENE 9.8 km/h 9.8 km/h 60 % 0 mm
11:16 -2.6 °C -7.6 °C 34496.6 hPa South 15 km/h 15 km/h 58 % 0 mm
11:21 -2.3 °C -7.3 °C 34496.6 hPa ESE 9 km/h 9 km/h 58 % 0 mm
11:26 -1.9 °C -7.1 °C 34496.6 hPa SE 6 km/h 6 km/h 57 % 0 mm
11:31 -1.7 °C -6.9 °C 34496.6 hPa West 9 km/h 9 km/h 57 % 0 mm
11:36 -1.9 °C -7.3 °C 34496.6 hPa SSW 11.9 km/h 11.9 km/h 56 % 0 mm
11:41 -1.9 °C -7.4 °C 34496.6 hPa South 6 km/h 6 km/h 55 % 0 mm
11:46 -2.2 °C -8 °C 34533.8 hPa ENE 15 km/h 15 km/h 53 % 0 mm
11:51 -2.7 °C -8.3 °C 34533.8 hPa ENE 15 km/h 15 km/h 54 % 0 mm
11:56 -2.7 °C -8 °C 34533.8 hPa South 6.8 km/h 6.8 km/h 56 % 0 mm
12:01 -2.6 °C -7.7 °C 34533.8 hPa SSE 11.9 km/h 11.9 km/h 57 % 0 mm
12:06 -2.6 °C -7.7 °C 34533.8 hPa East 11.9 km/h 11.9 km/h 57 % 0 mm
12:11 -2.8 °C -7.7 °C 34533.8 hPa East 9 km/h 9 km/h 59 % 0 mm
12:16 -3.1 °C -7.7 °C 34496.6 hPa SE 20.9 km/h 20.9 km/h 60 % 0 mm
12:21 -2.9 °C -7.6 °C 34496.6 hPa ESE 26.4 km/h 26.4 km/h 60 % 0 mm
12:26 -2.9 °C -7.4 °C 34496.6 hPa SSE 15 km/h 15 km/h 61 % 0 mm
12:31 -2.8 °C -7.4 °C 34496.6 hPa East 17.9 km/h 17.9 km/h 61 % 0 mm
12:36 -2.8 °C -7.6 °C 34496.6 hPa South 15 km/h 15 km/h 59 % 0 mm
12:41 -2.8 °C -7.4 °C 34496.6 hPa SE 11.9 km/h 11.9 km/h 61 % 0 mm
12:46 -2.8 °C -7.4 °C 34496.6 hPa ESE 11.9 km/h 11.9 km/h 60 % 0 mm
12:51 -3.1 °C -7.6 °C 34496.6 hPa South 15 km/h 15 km/h 61 % 0 mm
12:56 -3.4 °C -7.7 °C 34496.6 hPa West 29.8 km/h 29.8 km/h 62 % 0 mm
13:01 -3.6 °C -7.9 °C 34496.6 hPa ENE 22.5 km/h 22.5 km/h 62 % 0 mm
13:06 -3.8 °C -8 °C 34496.6 hPa SE 20.9 km/h 20.9 km/h 63 % 0 mm
13:11 -3.7 °C -7.7 °C 34496.6 hPa SE 22 km/h 22 km/h 64 % 0 mm
13:16 -3.6 °C -7.7 °C 34496.6 hPa SE 15 km/h 15 km/h 63 % 0 mm
13:21 -3.5 °C -7.6 °C 34496.6 hPa SSE 23.8 km/h 23.8 km/h 64 % 0 mm
13:26 -2.8 °C -7.2 °C 34496.6 hPa ESE 11.9 km/h 11.9 km/h 62 % 0 mm
13:31 -2.4 °C -7.1 °C 34496.6 hPa SSE 12.7 km/h 12.7 km/h 60 % 0 mm
13:36 -2.4 °C -7.1 °C 34496.6 hPa SSW 9 km/h 9 km/h 60 % 0 mm
13:41 -2.2 °C -7.1 °C 34496.6 hPa SW 17.9 km/h 17.9 km/h 59 % 0 mm
13:46 -1.9 °C -7.3 °C 34496.6 hPa SSW 11.9 km/h 11.9 km/h 56 % 0 mm
13:51 -1.8 °C -7.1 °C 34496.6 hPa SSE 15 km/h 15 km/h 56 % 0 mm
13:56 -2.1 °C -7.6 °C 34496.6 hPa SSW 17.9 km/h 17.9 km/h 55 % 0 mm
14:01 -1.8 °C -7.1 °C 34462.7 hPa SSW 11.1 km/h 11.1 km/h 56 % 0 mm
14:06 -1.7 °C -7.6 °C 34462.7 hPa SSE 29.8 km/h 29.8 km/h 53 % 0 mm
14:11 -1.4 °C -7.7 °C 34462.7 hPa SSE 9.3 km/h 9.3 km/h 51 % 0 mm
14:16 -1.4 °C -7.8 °C 34462.7 hPa SSE 20.9 km/h 20.9 km/h 50 % 0 mm
14:21 -1.2 °C -7.3 °C 34462.7 hPa WSW 15.3 km/h 15.3 km/h 52 % 0 mm
14:26 -1.3 °C -7.7 °C 34462.7 hPa South 9 km/h 9 km/h 50 % 0 mm
14:31 -0.9 °C -7.3 °C 34462.7 hPa WSW 22 km/h 22 km/h 50 % 0 mm
14:36 -0.8 °C -7.6 °C 34462.7 hPa ESE 17.9 km/h 17.9 km/h 48 % 0 mm
14:41 -1.1 °C -7.8 °C 34462.7 hPa SSW 15 km/h 15 km/h 48 % 0 mm
14:46 -1.1 °C -7.8 °C 34462.7 hPa South 17.9 km/h 17.9 km/h 48 % 0 mm
14:51 -1.2 °C -7.7 °C 34462.7 hPa SSW 15 km/h 15 km/h 49 % 0 mm
14:56 -1.2 °C -7.7 °C 34462.7 hPa SW 15.3 km/h 15.3 km/h 49 % 0 mm
15:01 -1.3 °C -8.1 °C 34462.7 hPa ESE 11.9 km/h 11.9 km/h 48 % 0 mm
15:06 -1.2 °C -7.7 °C 34462.7 hPa SW 15 km/h 15 km/h 49 % 0 mm
15:11 -1.2 °C -7.9 °C 34462.7 hPa SSW 20.9 km/h 20.9 km/h 48 % 0 mm
15:16 -1 °C -7.9 °C 34462.7 hPa SW 16.6 km/h 16.6 km/h 47 % 0 mm
15:21 -1.1 °C -8.2 °C 34462.7 hPa SW 17.9 km/h 17.9 km/h 46 % 0 mm
15:22 -1.1 °C -8.4 °C 34462.7 hPa SW 23.3 km/h 23.3 km/h 45 % 0 mm
15:27 -0.8 °C -8.2 °C 34462.7 hPa WSW 9 km/h 9 km/h 45 % 0 mm
15:32 -1 °C -8.2 °C 34462.7 hPa SW 23.8 km/h 23.8 km/h 46 % 0 mm
15:37 -0.7 °C -8.1 °C 34462.7 hPa SSW 9 km/h 9.3 km/h 45 % 0 mm
15:42 -1 °C -8.2 °C 34462.7 hPa ESE 15 km/h 15 km/h 46 % 0 mm
15:47 -1 °C -8.4 °C 34462.7 hPa WSW 15 km/h 15 km/h 45 % 0 mm
15:52 -0.9 °C -8.4 °C 34462.7 hPa WSW 17.9 km/h 17.9 km/h 44 % 0 mm
15:57 -1.1 °C -8.8 °C 34462.7 hPa SW 26.9 km/h 26.9 km/h 43 % 0 mm
16:02 -1.3 °C -9 °C 34462.7 hPa SSW 20.9 km/h 20.9 km/h 43 % 0 mm
16:07 -1.1 °C -8.8 °C 34462.7 hPa WSW 31.9 km/h 31.9 km/h 43 % 0 mm
16:12 -1.2 °C -8.9 °C 34462.7 hPa SSW 23.8 km/h 23.8 km/h 43 % 0 mm
16:17 -1.2 °C -8.9 °C 34462.7 hPa SW 26.9 km/h 26.9 km/h 43 % 0 mm
16:22 -1.2 °C -8.9 °C 34462.7 hPa WSW 29.8 km/h 29.8 km/h 43 % 0 mm
16:27 -1.3 °C -8.8 °C 34462.7 hPa South 35.7 km/h 35.7 km/h 44 % 0 mm
16:32 -1.3 °C -9 °C 34462.7 hPa SW 19.2 km/h 19.2 km/h 43 % 0 mm
16:37 -1.3 °C -9.1 °C 34462.7 hPa SW 32.8 km/h 32.8 km/h 43 % 0 mm
16:42 -1.3 °C -9.1 °C 34496.6 hPa South 11.9 km/h 11.9 km/h 43 % 0 mm
16:47 -1.4 °C -9.1 °C 34496.6 hPa SW 20.3 km/h 20.3 km/h 43 % 0 mm
16:52 -1.3 °C -9 °C 34496.6 hPa SW 20.9 km/h 20.9 km/h 43 % 0 mm
16:57 -1.4 °C -9.2 °C 34462.7 hPa SW 20.9 km/h 20.9 km/h 43 % 0 mm
17:02 -1.5 °C -9.2 °C 34462.7 hPa SSW 20.9 km/h 20.9 km/h 43 % 0 mm
17:07 -1.3 °C -9 °C 34462.7 hPa SW 20.9 km/h 20.9 km/h 43 % 0 mm
17:12 -1.7 °C -9.2 °C 34462.7 hPa SSW 15 km/h 15.3 km/h 44 % 0 mm
17:17 -1.3 °C -8.8 °C 34462.7 hPa South 15 km/h 15 km/h 44 % 0 mm
17:22 -1.2 °C -8.6 °C 34462.7 hPa WSW 20.9 km/h 20.9 km/h 45 % 0 mm
17:27 -1.4 °C -8.7 °C 34462.7 hPa West 19.2 km/h 19.2 km/h 45 % 0 mm
17:32 -1.6 °C -8.8 °C 34462.7 hPa SSW 17.9 km/h 17.9 km/h 45 % 0 mm
17:37 -1.3 °C -8.7 °C 34462.7 hPa SW 24.3 km/h 24.3 km/h 45 % 0 mm
17:42 -1.6 °C -8.7 °C 34462.7 hPa SW 6 km/h 6 km/h 46 % 0 mm
17:47 -1.8 °C -8.7 °C 34462.7 hPa WSW 11.9 km/h 11.9 km/h 47 % 0 mm
17:52 -1.9 °C -8.6 °C 34462.7 hPa SE 16.1 km/h 16.1 km/h 48 % 0 mm
17:57 -2.2 °C -8.9 °C 34462.7 hPa SW 15 km/h 15 km/h 48 % 0 mm
18:02 -2.4 °C -8.9 °C 34462.7 hPa SSW 15 km/h 15 km/h 49 % 0 mm
18:07 -2.4 °C -8.9 °C 34462.7 hPa SSE 9.3 km/h 9.3 km/h 49 % 0 mm
18:12 -2.5 °C -8.8 °C 34462.7 hPa ESE 11.9 km/h 11.9 km/h 50 % 0 mm
18:17 -2.6 °C -8.9 °C 34462.7 hPa SW 20.9 km/h 20.9 km/h 50 % 0 mm
18:22 -2.7 °C -8.9 °C 34462.7 hPa WSW 17.9 km/h 17.9 km/h 50 % 0 mm
18:27 -2.7 °C -9 °C 34462.7 hPa West 11.9 km/h 11.9 km/h 50 % 0 mm
18:32 -2.8 °C -9.1 °C 34462.7 hPa SW 22 km/h 22 km/h 50 % 0 mm
18:37 -2.7 °C -8.8 °C 34462.7 hPa SW 17.9 km/h 17.9 km/h 51 % 0 mm
18:42 -2.7 °C -8.8 °C 34462.7 hPa SW 17.9 km/h 17.9 km/h 51 % 0 mm
18:47 -2.7 °C -8.8 °C 34462.7 hPa SW 9 km/h 9 km/h 51 % 0 mm
18:52 -2.7 °C -8.7 °C 34462.7 hPa SSW 11.9 km/h 11.9 km/h 52 % 0 mm
18:57 -2.6 °C -8.7 °C 34462.7 hPa SW 11.9 km/h 11.9 km/h 51 % 0 mm
19:02 -2.7 °C -8.8 °C 34462.7 hPa WSW 15 km/h 15 km/h 51 % 0 mm
19:07 -2.7 °C -8.6 °C 34462.7 hPa SW 9 km/h 9.8 km/h 52 % 0 mm
19:12 -2.7 °C -8.7 °C 34462.7 hPa SSW 15 km/h 15 km/h 52 % 0 mm
19:17 -2.9 °C -8.7 °C 34462.7 hPa South 11.9 km/h 11.9 km/h 53 % 0 mm
19:22 -2.9 °C -8.6 °C 34462.7 hPa SW 6 km/h 6 km/h 54 % 0 mm
19:27 -3.1 °C -8.7 °C 34462.7 hPa South 20.9 km/h 20.9 km/h 54 % 0 mm
19:32 -3.2 °C -8.6 °C 34462.7 hPa SSE 20.9 km/h 20.9 km/h 55 % 0 mm
19:37 -3.2 °C -8.7 °C 34462.7 hPa SSW 15 km/h 15 km/h 55 % 0 mm
19:42 -3.4 °C -8.7 °C 34462.7 hPa WSW 20.9 km/h 20.9 km/h 56 % 0 mm
19:43 -3.4 °C -8.7 °C 34462.7 hPa SW 9 km/h 11.1 km/h 56 % 0 mm
19:48 -3.4 °C -8.7 °C 34462.7 hPa SW 15 km/h 15 km/h 56 % 0 mm
19:53 -3.5 °C -8.6 °C 34462.7 hPa SSW 15 km/h 15 km/h 57 % 0 mm
19:58 -3.6 °C -8.7 °C 34428.8 hPa SW 15 km/h 15 km/h 57 % 0 mm
20:03 -3.7 °C -8.7 °C 34428.8 hPa SW 11.9 km/h 11.9 km/h 57 % 0 mm
20:08 -3.7 °C -8.8 °C 34428.8 hPa SSW 15 km/h 15 km/h 57 % 0 mm
20:13 -3.8 °C -8.7 °C 34462.7 hPa SW 15 km/h 15 km/h 58 % 0 mm
20:15 -5.5 °C -7.9 °C 34496.6 hPa SW 2.6 km/h 5.1 km/h 76 % 0 mm
20:18 -3.9 °C -8.8 °C 34462.7 hPa SW 15 km/h 15 km/h 58 % 0 mm
20:23 -3.9 °C -8.6 °C 34462.7 hPa SW 15 km/h 15 km/h 60 % 0 mm
20:25 -5.5 °C -7.7 °C 34496.6 hPa SW 2.6 km/h 5.1 km/h 78 % 0 mm
20:28 -4 °C -8.6 °C 34462.7 hPa WSW 15 km/h 15 km/h 60 % 0 mm
20:33 -4.1 °C -8.6 °C 34462.7 hPa SW 11.9 km/h 11.9 km/h 61 % 0 mm
20:35 -5.5 °C -7.7 °C 34533.8 hPa SW 2.6 km/h 5.1 km/h 78 % 0 mm
20:38 -4.1 °C -8.6 °C 34462.7 hPa SW 9 km/h 9 km/h 61 % 0 mm
20:43 -4.2 °C -8.6 °C 34462.7 hPa South 11.9 km/h 11.9 km/h 61 % 0 mm
20:45 -5.6 °C -7.8 °C 34533.8 hPa SW 2.6 km/h 5.1 km/h 78 % 0 mm
20:48 -4.2 °C -8.7 °C 34462.7 hPa South 11.9 km/h 11.9 km/h 61 % 0 mm
20:53 -4.3 °C -8.7 °C 34462.7 hPa SW 9.8 km/h 9.8 km/h 61 % 0 mm
20:55 -5.6 °C -7.7 °C 34533.8 hPa SW 2.6 km/h 5.1 km/h 79 % 0 mm
20:58 -4.3 °C -8.7 °C 34462.7 hPa WSW 9 km/h 9 km/h 62 % 0 mm
21:03 -4.4 °C -8.6 °C 34462.7 hPa SW 9.3 km/h 9.3 km/h 63 % 0 mm
21:05 -5.7 °C -7.8 °C 34496.6 hPa SW 2.6 km/h 5.1 km/h 79 % 0 mm
21:08 -4.4 °C -8.6 °C 34462.7 hPa SW 9 km/h 9 km/h 63 % 0 mm
21:13 -4.4 °C -8.4 °C 34462.7 hPa SW 9 km/h 9 km/h 64 % 0 mm
21:15 -5.7 °C -7.8 °C 34496.6 hPa WSW 2.6 km/h 5.1 km/h 79 % 0 mm
21:18 -4.5 °C -8.4 °C 34462.7 hPa SW 6 km/h 6 km/h 65 % 0 mm
21:23 -4.6 °C -8.4 °C 34462.7 hPa South 9 km/h 9 km/h 65 % 0 mm
21:25 -5.7 °C -7.8 °C 34496.6 hPa WSW 2.6 km/h 5.1 km/h 79 % 0 mm
21:28 -4.6 °C -8.4 °C 34496.6 hPa SW 9 km/h 9 km/h 66 % 0 mm
21:33 -4.6 °C -8.2 °C 34496.6 hPa SSW 6.3 km/h 6.3 km/h 67 % 0 mm
21:35 -5.7 °C -7.7 °C 34496.6 hPa WSW 2.6 km/h 5.1 km/h 80 % 0 mm
21:38 -4.7 °C -8.3 °C 34496.6 hPa SW 6 km/h 6 km/h 67 % 0 mm
21:43 -4.7 °C -8.2 °C 34496.6 hPa SW 6.3 km/h 6.3 km/h 68 % 0 mm
21:45 -5.7 °C -7.7 °C 34496.6 hPa West 2.6 km/h 5.1 km/h 80 % 0 mm
21:48 -4.7 °C -8.2 °C 34496.6 hPa SW 6 km/h 6 km/h 68 % 0 mm
21:53 -4.8 °C -8.2 °C 34496.6 hPa SW 6 km/h 6 km/h 68 % 0 mm
21:55 -5.7 °C -7.6 °C 34496.6 hPa West 2.6 km/h 7.7 km/h 81 % 0 mm
21:58 -4.8 °C -8.1 °C 34496.6 hPa SW 6 km/h 6 km/h 69 % 0 mm
22:03 -4.8 °C -8.2 °C 34496.6 hPa SW 6 km/h 6 km/h 69 % 0 mm
22:05 -5.7 °C -7.6 °C 34496.6 hPa Calm   5.1 km/h 81 % 0 mm
22:08 -4.9 °C -8.1 °C 34496.6 hPa SW 5.6 km/h   70 % 0 mm
22:13 -4.9 °C -8.1 °C 34496.6 hPa SSW 6 km/h 6 km/h 70 % 0 mm
22:15 -5.7 °C -7.5 °C 34496.6 hPa Calm   5.1 km/h 82 % 0 mm
22:18 -4.9 °C -8.2 °C 34496.6 hPa SW 7.6 km/h 7.6 km/h 70 % 0 mm
22:23 -4.9 °C -8 °C 34496.6 hPa SW 3.7 km/h   71 % 0 mm
22:25 -5.8 °C -7.6 °C 34496.6 hPa Calm     82 % 0 mm
22:28 -5 °C -8.1 °C 34496.6 hPa SW 6 km/h 6 km/h 71 % 0 mm
22:29 -5 °C -8.1 °C 34496.6 hPa SW 3.1 km/h 3.1 km/h 71 % 0 mm
22:34 -5 °C -7.9 °C 34496.6 hPa SW 6 km/h 6 km/h 72 % 0 mm
22:35 -5.9 °C -7.7 °C 34496.6 hPa Calm     82 % 0 mm
22:39 -5.1 °C -8 °C 34496.6 hPa WSW 6 km/h 6 km/h 72 % 0 mm
22:44 -5.1 °C -7.9 °C 34496.6 hPa SW 6 km/h 6 km/h 73 % 0 mm
22:45 -5.9 °C -7.6 °C 34496.6 hPa Calm     83 % 0 mm
22:49 -5.1 °C -7.9 °C 34496.6 hPa Calm     73 % 0 mm
22:54 -5.1 °C -7.9 °C 34496.6 hPa Calm     73 % 0 mm
22:55 -6.1 °C -7.8 °C 34496.6 hPa Calm   2.6 km/h 83 % 0 mm
22:59 -5.1 °C -7.9 °C 34496.6 hPa WSW 3.1 km/h 3.7 km/h 73 % 0 mm
23:04 -5.1 °C -7.8 °C 34496.6 hPa WSW 3.1 km/h 3.1 km/h 74 % 0 mm
23:05 -6.2 °C -7.8 °C 34496.6 hPa Calm   2.6 km/h 83 % 0 mm
23:09 -5.1 °C -7.8 °C 34496.6 hPa WSW 3.7 km/h 3.7 km/h 74 % 0 mm
23:14 -5.1 °C -7.8 °C 34496.6 hPa Calm     74 % 0 mm
23:15 -6.3 °C -8.1 °C 34496.6 hPa South 5.1 km/h 5.1 km/h 82 % 0 mm
23:19 -5.1 °C -7.7 °C 34496.6 hPa Calm     75 % 0 mm
23:24 -5.2 °C -7.7 °C 34496.6 hPa Calm     75 % 0 mm
23:25 -6.3 °C -8 °C 34496.6 hPa Calm   7.7 km/h 83 % 0 mm
23:29 -5.2 °C -7.7 °C 34496.6 hPa SW 3.1 km/h   75 % 0 mm
23:34 -5.2 °C -7.8 °C 34496.6 hPa Calm     75 % 0 mm
23:35 -6.2 °C -7.8 °C 34496.6 hPa Calm   2.6 km/h 84 % 0 mm
23:39 -5.3 °C -7.9 °C 34496.6 hPa SW 3.7 km/h 3.7 km/h 75 % 0 mm
23:44 -5.3 °C -7.9 °C 34496.6 hPa WSW 3.1 km/h   75 % 0 mm
23:45 -6.3 °C -7.7 °C 34496.6 hPa Calm     85 % 0 mm
23:49 -5.3 °C -7.7 °C 34496.6 hPa Calm     76 % 0 mm
23:54 -5.3 °C -7.8 °C 34496.6 hPa SW 3.1 km/h 3.1 km/h 76 % 0 mm
23:55 -6.3 °C -7.7 °C 34496.6 hPa SSE 5.1 km/h 10.3 km/h 85 % 0 mm
23:59 -5.3 °C -7.8 °C 34496.6 hPa Calm     76 % 0 mm
Meteo Sesrovires
Elogis d' Weather Underground - 4.25 mb

Guio original per  Jim McMurry - jmcmurry@mwt.net Adaptat per a la plantilla per  Wim van der Kuil - Leuven-Template.eu

Trobareu la nostra informacio del temps tambe a:

Weather Underground

AWEKAS